createdAt,value
2023-02-18T00:04:13.466Z,5.27
2023-02-18T00:09:21.673Z,5.23
2023-02-18T00:14:30.261Z,5.19
2023-02-18T00:19:39.397Z,5.20
2023-02-18T00:24:47.981Z,5.19
2023-02-18T00:29:56.198Z,5.17
2023-02-18T00:35:03.937Z,5.15
2023-02-18T00:40:13.731Z,5.11
2023-02-18T00:45:21.286Z,5.05
2023-02-18T00:50:28.673Z,4.99
2023-02-18T00:55:43.130Z,4.94
2023-02-18T01:00:51.669Z,4.90
2023-02-18T01:05:59.229Z,4.86
2023-02-18T01:11:07.811Z,4.82
2023-02-18T01:16:15.974Z,4.81
2023-02-18T01:21:26.789Z,4.77
2023-02-18T01:26:35.244Z,4.72
2023-02-18T01:31:43.658Z,4.69
2023-02-18T01:36:51.722Z,4.69
2023-02-18T01:41:59.925Z,4.67
2023-02-18T01:47:08.351Z,4.64
2023-02-18T01:52:21.024Z,4.63
2023-02-18T01:57:33.241Z,4.59
2023-02-18T02:02:46.206Z,4.53
2023-02-18T02:07:56.486Z,4.51
2023-02-18T02:13:09.483Z,4.52
2023-02-18T02:18:36.734Z,4.50
2023-02-18T02:24:08.602Z,4.47
2023-02-18T02:29:49.724Z,4.42
2023-02-18T02:35:03.069Z,4.38
2023-02-18T02:40:27.560Z,4.38
2023-02-18T02:45:50.563Z,4.37
2023-02-18T02:51:06.914Z,4.36
2023-02-18T02:56:19.104Z,4.37
2023-02-18T03:01:38.526Z,4.37
2023-02-18T03:07:15.628Z,4.35
2023-02-18T03:12:32.959Z,4.37
2023-02-18T03:17:48.420Z,4.39
2023-02-18T03:22:57.922Z,4.39
2023-02-18T03:28:09.287Z,4.39
2023-02-18T03:33:22.729Z,4.42
2023-02-18T03:38:38.399Z,4.42
2023-02-18T03:43:53.699Z,4.45
2023-02-18T03:49:02.884Z,4.48
2023-02-18T03:54:11.436Z,4.51
2023-02-18T03:59:22.205Z,4.52
2023-02-18T04:04:30.587Z,4.47
2023-02-18T04:09:39.092Z,4.47
2023-02-18T04:14:46.871Z,4.45
2023-02-18T04:19:54.919Z,4.41
2023-02-18T04:25:02.368Z,4.37
2023-02-18T04:30:11.883Z,4.34
2023-02-18T04:35:20.345Z,4.31
2023-02-18T04:40:31.217Z,4.25
2023-02-18T04:45:38.872Z,4.20
2023-02-18T04:50:47.498Z,4.14
2023-02-18T04:55:57.160Z,4.08
2023-02-18T05:01:05.908Z,4.02
2023-02-18T05:06:13.368Z,3.98
2023-02-18T05:11:21.400Z,3.96
2023-02-18T05:16:30.181Z,3.94
2023-02-18T05:21:38.150Z,3.93
2023-02-18T05:26:46.666Z,3.94
2023-02-18T05:31:55.313Z,3.95
2023-02-18T05:37:04.332Z,3.92
2023-02-18T05:42:13.342Z,3.90
2023-02-18T05:47:21.787Z,3.88
2023-02-18T05:52:30.043Z,3.87
2023-02-18T05:57:38.105Z,3.84
2023-02-18T06:02:47.132Z,3.84
2023-02-18T06:07:56.633Z,3.86
2023-02-18T06:13:04.949Z,3.88
2023-02-18T06:18:13.542Z,3.89
2023-02-18T06:23:22.925Z,3.88
2023-02-18T06:28:32.703Z,3.87
2023-02-18T06:33:41.580Z,3.86
2023-02-18T06:38:49.674Z,3.88
2023-02-18T06:43:58.889Z,3.91
2023-02-18T06:49:06.587Z,3.93
2023-02-18T06:54:15.175Z,3.97
2023-02-18T06:59:23.052Z,4.00
2023-02-18T07:04:30.846Z,4.04
2023-02-18T07:09:39.071Z,4.11
2023-02-18T07:14:46.823Z,4.15
2023-02-18T07:19:56.139Z,4.19
2023-02-18T07:25:04.594Z,4.21
2023-02-18T07:30:13.067Z,4.23
2023-02-18T07:35:23.264Z,4.27
2023-02-18T07:40:31.890Z,4.31
2023-02-18T07:45:41.855Z,4.36
2023-02-18T07:50:49.904Z,4.40
2023-02-18T07:56:00.744Z,4.45
2023-02-18T08:01:11.739Z,4.48
2023-02-18T08:06:27.327Z,4.50
2023-02-18T08:11:37.026Z,4.51
2023-02-18T08:16:49.043Z,4.52
2023-02-18T08:21:57.372Z,4.55
2023-02-18T08:27:05.506Z,4.57
2023-02-18T08:32:14.016Z,4.61
2023-02-18T08:37:22.472Z,4.66
2023-02-18T08:42:32.709Z,4.67
2023-02-18T08:48:16.968Z,4.69
2023-02-18T08:53:09.326Z,4.71
2023-02-18T08:58:17.726Z,4.75
2023-02-18T09:03:25.574Z,4.79
2023-02-18T09:08:34.901Z,4.84
2023-02-18T09:13:43.590Z,4.88
2023-02-18T09:18:52.296Z,4.91
2023-02-18T09:24:00.223Z,4.97
2023-02-18T09:29:09.841Z,5.02
2023-02-18T09:34:18.480Z,5.05
2023-02-18T09:39:28.075Z,5.10
2023-02-18T09:44:40.808Z,5.12
2023-02-18T09:49:54.748Z,5.18
2023-02-18T09:55:03.616Z,5.23
2023-02-18T10:00:19.231Z,5.27
2023-02-18T10:05:28.861Z,5.33
2023-02-18T10:10:44.291Z,5.40
2023-02-18T10:15:53.442Z,5.44
2023-02-18T10:21:13.570Z,5.50
2023-02-18T10:26:23.733Z,5.60
2023-02-18T10:31:38.208Z,5.71
2023-02-18T10:36:49.415Z,5.82
2023-02-18T10:42:10.171Z,5.88
2023-02-18T10:47:32.878Z,5.90
2023-02-18T10:52:45.409Z,5.92
2023-02-18T10:57:56.081Z,5.94
2023-02-18T11:03:18.024Z,5.97
2023-02-18T11:08:30.275Z,5.98
2023-02-18T11:13:36.084Z,5.99
2023-02-18T11:18:47.444Z,5.99
2023-02-18T11:23:57.780Z,6.01
2023-02-18T11:29:08.641Z,6.06
2023-02-18T11:34:24.006Z,6.12
2023-02-18T11:39:32.912Z,6.18
2023-02-18T11:44:43.835Z,6.25
2023-02-18T11:50:18.224Z,6.33
2023-02-18T11:55:27.876Z,6.37
2023-02-18T12:00:44.200Z,6.38
2023-02-18T12:05:52.543Z,6.38
2023-02-18T12:11:07.379Z,6.38
2023-02-18T12:16:27.308Z,6.36
2023-02-18T12:22:00.323Z,6.33
2023-02-18T12:27:18.076Z,6.29
2023-02-18T12:32:38.589Z,6.26
2023-02-18T12:38:06.752Z,6.25
2023-02-18T12:43:25.040Z,6.23
2023-02-18T12:48:51.941Z,6.23
2023-02-18T12:54:24.950Z,6.22
2023-02-18T12:59:54.823Z,6.20
2023-02-18T13:05:11.208Z,6.19
2023-02-18T13:10:45.572Z,6.15
2023-02-18T13:16:01.575Z,6.14
2023-02-18T13:21:14.751Z,6.13
2023-02-18T13:26:23.913Z,6.11
2023-02-18T13:31:47.488Z,6.06
2023-02-18T13:37:09.533Z,6.05
2023-02-18T13:42:40.091Z,6.05
2023-02-18T13:47:50.212Z,6.02
2023-02-18T13:53:17.675Z,5.99
2023-02-18T13:58:33.055Z,5.97
2023-02-18T14:03:58.833Z,5.95
2023-02-18T14:09:40.381Z,5.93
2023-02-18T14:14:49.366Z,5.89
2023-02-18T14:20:20.320Z,5.86
2023-02-18T14:25:41.651Z,5.82
2023-02-18T14:30:51.391Z,5.79
2023-02-18T14:36:09.370Z,5.76
2023-02-18T14:41:37.202Z,5.72
2023-02-18T14:47:02.278Z,5.69
2023-02-18T14:52:22.909Z,5.65
2023-02-18T14:57:40.920Z,5.62
2023-02-18T15:02:53.166Z,5.61
2023-02-18T15:08:03.863Z,5.58
2023-02-18T15:13:21.104Z,5.54
2023-02-18T15:18:36.954Z,5.52
2023-02-18T15:23:45.602Z,5.49
2023-02-18T15:29:01.109Z,5.47
2023-02-18T15:34:27.498Z,5.43
2023-02-18T15:39:39.204Z,5.44
2023-02-18T15:44:50.741Z,5.45
2023-02-18T15:50:03.059Z,5.43
2023-02-18T15:55:17.528Z,5.43
2023-02-18T16:00:34.149Z,5.41
2023-02-18T16:05:44.322Z,5.39
2023-02-18T16:11:00.442Z,5.36
2023-02-18T16:16:23.252Z,5.32
2023-02-18T16:21:39.382Z,5.29
2023-02-18T16:26:52.468Z,5.25
2023-02-18T16:32:00.159Z,5.22
2023-02-18T16:37:31.401Z,5.18
2023-02-18T16:42:39.497Z,5.16
2023-02-18T16:47:49.429Z,5.04
2023-02-18T16:52:57.855Z,5.09
2023-02-18T16:58:11.285Z,5.06
2023-02-18T17:03:23.040Z,5.03
2023-02-18T17:08:31.567Z,5.00
2023-02-18T17:13:39.025Z,5.00
2023-02-18T17:18:49.009Z,4.99
2023-02-18T17:23:57.953Z,4.95
2023-02-18T17:29:06.214Z,4.92
2023-02-18T17:34:17.420Z,4.89
2023-02-18T17:39:25.496Z,4.87
2023-02-18T17:44:33.801Z,4.89
2023-02-18T17:49:42.855Z,4.88
2023-02-18T17:54:51.606Z,4.89
2023-02-18T18:00:00.687Z,4.87
2023-02-18T18:05:15.790Z,4.84
2023-02-18T18:10:29.145Z,4.81
2023-02-18T18:15:41.403Z,4.77
2023-02-18T18:20:47.566Z,4.75
2023-02-18T18:25:57.633Z,4.72
2023-02-18T18:31:06.916Z,4.71
2023-02-18T18:36:16.547Z,4.69
2023-02-18T18:41:26.478Z,4.67
2023-02-18T18:46:34.763Z,4.67
2023-02-18T18:51:43.330Z,4.67
2023-02-18T18:56:51.335Z,4.66
2023-02-18T19:02:00.474Z,4.66
2023-02-18T19:07:09.283Z,4.65
2023-02-18T19:12:18.673Z,4.63
2023-02-18T19:17:27.034Z,4.61
2023-02-18T19:22:34.424Z,4.60
2023-02-18T19:27:44.844Z,4.58
2023-02-18T19:32:54.729Z,4.56
2023-02-18T19:38:03.648Z,4.55
2023-02-18T19:43:14.830Z,4.53
2023-02-18T19:48:23.849Z,4.51
2023-02-18T19:53:33.088Z,4.50
2023-02-18T19:58:42.052Z,4.50
2023-02-18T20:03:50.854Z,4.49
2023-02-18T20:09:00.179Z,4.48
2023-02-18T20:14:09.209Z,4.47
2023-02-18T20:19:17.568Z,4.46
2023-02-18T20:24:26.866Z,4.45
2023-02-18T20:29:36.816Z,4.44
2023-02-18T20:34:45.003Z,4.42
2023-02-18T20:39:53.212Z,4.39
2023-02-18T20:45:01.266Z,4.39
2023-02-18T20:50:10.093Z,4.36
2023-02-18T20:55:18.765Z,4.33
2023-02-18T21:00:26.890Z,4.31
2023-02-18T21:05:35.267Z,4.28
2023-02-18T21:10:46.871Z,4.27
2023-02-18T21:15:56.102Z,4.26
2023-02-18T21:21:04.717Z,4.26
2023-02-18T21:26:17.854Z,4.25
2023-02-18T21:31:27.436Z,4.22
2023-02-18T21:36:36.412Z,4.21
2023-02-18T21:41:45.367Z,4.19
2023-02-18T21:46:54.533Z,4.16
2023-02-18T21:52:09.628Z,4.15
2023-02-18T21:57:20.297Z,4.13
2023-02-18T22:02:34.288Z,4.12
2023-02-18T22:07:41.996Z,4.11
2023-02-18T22:12:50.364Z,4.10
2023-02-18T22:17:59.316Z,4.05
2023-02-18T22:23:08.420Z,4.03
2023-02-18T22:28:16.010Z,4.00
2023-02-18T22:33:23.611Z,3.98
2023-02-18T22:38:33.067Z,3.95
2023-02-18T22:43:41.566Z,3.93
2023-02-18T22:48:49.661Z,3.89
2023-02-18T22:54:01.614Z,3.85
2023-02-18T22:59:10.688Z,3.82
2023-02-18T23:04:20.625Z,3.80
2023-02-18T23:09:28.664Z,3.73
2023-02-18T23:14:37.429Z,3.77
2023-02-18T23:19:47.440Z,3.78
2023-02-18T23:24:54.878Z,3.76
2023-02-18T23:30:03.202Z,3.74
2023-02-18T23:35:12.012Z,3.73
2023-02-18T23:40:20.059Z,3.71
2023-02-18T23:45:28.336Z,3.68
2023-02-18T23:50:35.632Z,3.65
2023-02-18T23:55:44.353Z,3.61
